sensor_id;sensor_type;location;lat;lon;timestamp;pressure;altitude;pressure_sealevel;temperature;humidity
25650;BME280;13505;45.196;5.696;2023-09-07T04:33:50;99390.31;;;21.28;76.17
25650;BME280;13505;45.196;5.696;2023-09-07T04:38:41;99386.13;;;21.36;74.64
25650;BME280;13505;45.196;5.696;2023-09-07T04:43:31;99388.81;;;21.45;73.20
25650;BME280;13505;45.196;5.696;2023-09-07T04:48:21;99390.09;;;21.41;72.20
25650;BME280;13505;45.196;5.696;2023-09-07T04:53:12;99399.25;;;21.39;71.01
25650;BME280;13505;45.196;5.696;2023-09-07T04:58:02;99391.59;;;21.34;71.01
25650;BME280;13505;45.196;5.696;2023-09-07T05:02:52;99399.88;;;21.21;71.28
25650;BME280;13505;45.196;5.696;2023-09-07T05:07:43;99401.13;;;21.17;71.81
25650;BME280;13505;45.196;5.696;2023-09-07T05:12:33;99409.56;;;21.12;72.08
25650;BME280;13505;45.196;5.696;2023-09-07T05:17:23;99414.06;;;21.12;72.19
25650;BME280;13505;45.196;5.696;2023-09-07T05:22:14;99423.25;;;21.09;71.54
25650;BME280;13505;45.196;5.696;2023-09-07T05:27:04;99419.44;;;21.12;72.00
25650;BME280;13505;45.196;5.696;2023-09-07T05:31:55;99428.88;;;21.06;72.28
25650;BME280;13505;45.196;5.696;2023-09-07T05:36:48;99432.47;;;20.95;73.45
25650;BME280;13505;45.196;5.696;2023-09-07T05:41:38;99436.00;;;20.96;73.61
25650;BME280;13505;45.196;5.696;2023-09-07T05:46:28;99438.38;;;21.10;72.03
25650;BME280;13505;45.196;5.696;2023-09-07T05:51:19;99437.59;;;21.60;69.16
25650;BME280;13505;45.196;5.696;2023-09-07T05:56:09;99436.19;;;21.97;66.79
25650;BME280;13505;45.196;5.696;2023-09-07T06:01:00;99445.13;;;22.08;65.76
25650;BME280;13505;45.196;5.696;2023-09-07T06:05:50;99450.91;;;22.13;65.38
25650;BME280;13505;45.196;5.696;2023-09-07T06:10:41;99447.25;;;22.24;65.22
25650;BME280;13505;45.196;5.696;2023-09-07T06:15:31;99438.38;;;22.43;64.58
25650;BME280;13505;45.196;5.696;2023-09-07T06:20:21;99433.59;;;22.66;62.81
25650;BME280;13505;45.196;5.696;2023-09-07T06:25:12;99443.91;;;22.91;61.99
25650;BME280;13505;45.196;5.696;2023-09-07T06:30:02;99437.91;;;23.07;61.33
25650;BME280;13505;45.196;5.696;2023-09-07T06:34:53;99430.94;;;23.14;60.55
25650;BME280;13505;45.196;5.696;2023-09-07T06:39:43;99439.63;;;22.98;61.95
25650;BME280;13505;45.196;5.696;2023-09-07T06:44:34;99435.72;;;23.40;60.64
25650;BME280;13505;45.196;5.696;2023-09-07T06:49:24;99422.63;;;23.55;60.49
25650;BME280;13505;45.196;5.696;2023-09-07T06:54:14;99424.44;;;23.64;61.26
25650;BME280;13505;45.196;5.696;2023-09-07T06:59:05;99429.41;;;23.87;60.35
25650;BME280;13505;45.196;5.696;2023-09-07T07:03:55;99435.53;;;24.07;60.29
25650;BME280;13505;45.196;5.696;2023-09-07T07:08:47;99444.09;;;23.27;65.07
25650;BME280;13505;45.196;5.696;2023-09-07T07:13:37;99450.38;;;23.08;67.38
25650;BME280;13505;45.196;5.696;2023-09-07T07:18:27;99448.34;;;24.23;62.14
25650;BME280;13505;45.196;5.696;2023-09-07T07:23:18;99457.69;;;24.84;60.13
25650;BME280;13505;45.196;5.696;2023-09-07T07:28:08;99463.59;;;25.05;58.75
25650;BME280;13505;45.196;5.696;2023-09-07T07:32:58;99462.16;;;25.19;57.25
25650;BME280;13505;45.196;5.696;2023-09-07T07:37:49;99467.13;;;25.32;57.34
25650;BME280;13505;45.196;5.696;2023-09-07T07:42:40;99466.97;;;25.34;57.22
25650;BME280;13505;45.196;5.696;2023-09-07T07:47:30;99467.81;;;25.08;59.27
25650;BME280;13505;45.196;5.696;2023-09-07T07:52:20;99462.16;;;25.46;57.83
25650;BME280;13505;45.196;5.696;2023-09-07T07:57:12;99468.13;;;25.31;57.96
25650;BME280;13505;45.196;5.696;2023-09-07T08:02:02;99459.78;;;25.77;56.28
25650;BME280;13505;45.196;5.696;2023-09-07T08:06:53;99462.72;;;25.92;56.78
25650;BME280;13505;45.196;5.696;2023-09-07T08:11:48;99461.78;;;26.10;55.16
25650;BME280;13505;45.196;5.696;2023-09-07T08:16:38;99464.41;;;26.45;54.51
25650;BME280;13505;45.196;5.696;2023-09-07T08:21:29;99459.34;;;26.67;54.48
25650;BME280;13505;45.196;5.696;2023-09-07T08:26:19;99466.63;;;25.29;56.67
25650;BME280;13505;45.196;5.696;2023-09-07T08:31:10;99456.97;;;26.39;54.35
25650;BME280;13505;45.196;5.696;2023-09-07T08:36:00;99451.41;;;26.73;53.76
25650;BME280;13505;45.196;5.696;2023-09-07T08:40:55;99451.41;;;26.90;53.08
25650;BME280;13505;45.196;5.696;2023-09-07T08:46:20;99462.38;;;27.22;50.97
25650;BME280;13505;45.196;5.696;2023-09-07T08:51:15;99438.38;;;28.07;49.87
25650;BME280;13505;45.196;5.696;2023-09-07T08:56:06;99455.31;;;28.40;48.02
25650;BME280;13505;45.196;5.696;2023-09-07T09:00:59;99450.31;;;28.76;47.50
25650;BME280;13505;45.196;5.696;2023-09-07T09:05:50;99455.09;;;29.12;46.19
25650;BME280;13505;45.196;5.696;2023-09-07T09:10:41;99441.78;;;28.79;46.74
25650;BME280;13505;45.196;5.696;2023-09-07T09:15:31;99449.56;;;29.20;45.89
25650;BME280;13505;45.196;5.696;2023-09-07T09:20:25;99443.84;;;29.30;46.25
25650;BME280;13505;45.196;5.696;2023-09-07T09:25:19;99429.34;;;29.68;45.34
25650;BME280;13505;45.196;5.696;2023-09-07T09:30:09;99424.63;;;30.07;44.31
25650;BME280;13505;45.196;5.696;2023-09-07T09:35:01;99429.91;;;29.78;45.12
25650;BME280;13505;45.196;5.696;2023-09-07T09:39:52;99420.31;;;29.98;44.33
25650;BME280;13505;45.196;5.696;2023-09-07T09:44:44;99411.06;;;30.72;42.93
25650;BME280;13505;45.196;5.696;2023-09-07T09:49:35;99417.28;;;30.95;41.87
25650;BME280;13505;45.196;5.696;2023-09-07T09:54:27;99413.16;;;31.34;41.39
25650;BME280;13505;45.196;5.696;2023-09-07T09:59:18;99417.28;;;31.65;40.48
25650;BME280;13505;45.196;5.696;2023-09-07T10:04:11;99418.84;;;31.81;40.83
25650;BME280;13505;45.196;5.696;2023-09-07T10:09:05;99393.91;;;31.84;40.25
25650;BME280;13505;45.196;5.696;2023-09-07T10:13:58;99390.84;;;32.21;39.22
25650;BME280;13505;45.196;5.696;2023-09-07T10:18:48;99399.72;;;32.43;37.94
25650;BME280;13505;45.196;5.696;2023-09-07T10:23:40;99395.31;;;32.63;37.67
25650;BME280;13505;45.196;5.696;2023-09-07T10:28:31;99389.19;;;32.81;37.64
25650;BME280;13505;45.196;5.696;2023-09-07T10:33:22;99381.03;;;33.01;37.31
25650;BME280;13505;45.196;5.696;2023-09-07T10:38:14;99382.94;;;32.67;38.01
25650;BME280;13505;45.196;5.696;2023-09-07T10:43:04;99368.81;;;32.90;37.31
25650;BME280;13505;45.196;5.696;2023-09-07T10:47:55;99371.13;;;33.07;36.31
25650;BME280;13505;45.196;5.696;2023-09-07T10:52:45;99359.13;;;33.21;35.49
25650;BME280;13505;45.196;5.696;2023-09-07T10:57:45;99350.25;;;33.33;34.81
25650;BME280;13505;45.196;5.696;2023-09-07T11:02:40;99344.41;;;33.22;35.55
25650;BME280;13505;45.196;5.696;2023-09-07T11:07:31;99333.59;;;33.41;34.46
25650;BME280;13505;45.196;5.696;2023-09-07T11:12:21;99335.53;;;33.34;33.12
25650;BME280;13505;45.196;5.696;2023-09-07T11:17:12;99322.69;;;33.80;33.48
25650;BME280;13505;45.196;5.696;2023-09-07T11:22:02;99309.63;;;33.89;32.69
25650;BME280;13505;45.196;5.696;2023-09-07T11:26:54;99314.69;;;33.85;31.24
25650;BME280;13505;45.196;5.696;2023-09-07T11:31:47;99312.75;;;33.99;31.72
25650;BME280;13505;45.196;5.696;2023-09-07T11:36:39;99301.09;;;34.10;31.60
25650;BME280;13505;45.196;5.696;2023-09-07T11:41:30;99306.44;;;34.24;31.14
25650;BME280;13505;45.196;5.696;2023-09-07T11:46:20;99294.09;;;34.15;30.60
25650;BME280;13505;45.196;5.696;2023-09-07T11:51:10;99294.94;;;33.76;31.65
25650;BME280;13505;45.196;5.696;2023-09-07T11:56:01;99295.69;;;34.22;30.29
25650;BME280;13505;45.196;5.696;2023-09-07T12:00:51;99289.41;;;34.22;30.46
25650;BME280;13505;45.196;5.696;2023-09-07T12:05:41;99290.56;;;34.33;30.41
25650;BME280;13505;45.196;5.696;2023-09-07T12:10:34;99283.53;;;34.44;29.87
25650;BME280;13505;45.196;5.696;2023-09-07T12:15:24;99273.47;;;34.37;29.67
25650;BME280;13505;45.196;5.696;2023-09-07T12:20:15;99271.78;;;34.36;30.17
25650;BME280;13505;45.196;5.696;2023-09-07T12:25:05;99270.44;;;34.46;29.78
25650;BME280;13505;45.196;5.696;2023-09-07T12:30:02;99275.75;;;34.41;30.48
25650;BME280;13505;45.196;5.696;2023-09-07T12:34:56;99263.31;;;34.45;30.12
25650;BME280;13505;45.196;5.696;2023-09-07T12:39:46;99263.38;;;34.38;29.58
25650;BME280;13505;45.196;5.696;2023-09-07T12:44:37;99263.69;;;34.48;30.08
25650;BME280;13505;45.196;5.696;2023-09-07T12:49:27;99248.34;;;34.66;29.78
25650;BME280;13505;45.196;5.696;2023-09-07T12:54:17;99244.84;;;34.77;29.07
25650;BME280;13505;45.196;5.696;2023-09-07T12:59:08;99243.44;;;34.75;29.79
25650;BME280;13505;45.196;5.696;2023-09-07T13:03:59;99239.06;;;34.86;30.02
25650;BME280;13505;45.196;5.696;2023-09-07T13:08:49;99228.97;;;34.68;30.07
25650;BME280;13505;45.196;5.696;2023-09-07T13:13:40;99230.09;;;34.78;29.13
25650;BME280;13505;45.196;5.696;2023-09-07T13:18:30;99230.81;;;34.55;29.50
25650;BME280;13505;45.196;5.696;2023-09-07T13:23:20;99214.97;;;34.57;29.38
25650;BME280;13505;45.196;5.696;2023-09-07T13:28:11;99218.81;;;34.49;29.10
25650;BME280;13505;45.196;5.696;2023-09-07T13:33:01;99219.34;;;34.40;29.29
25650;BME280;13505;45.196;5.696;2023-09-07T13:37:51;99213.94;;;34.51;28.78
25650;BME280;13505;45.196;5.696;2023-09-07T13:42:42;99206.59;;;34.89;28.23
25650;BME280;13505;45.196;5.696;2023-09-07T13:47:33;99196.72;;;35.07;29.06
25650;BME280;13505;45.196;5.696;2023-09-07T13:52:23;99198.16;;;34.91;28.90
25650;BME280;13505;45.196;5.696;2023-09-07T13:57:13;99193.06;;;34.76;27.54
25650;BME280;13505;45.196;5.696;2023-09-07T14:02:04;99196.72;;;34.70;29.02
25650;BME280;13505;45.196;5.696;2023-09-07T14:06:54;99193.75;;;34.71;28.26
25650;BME280;13505;45.196;5.696;2023-09-07T14:11:44;99199.41;;;34.51;29.48
25650;BME280;13505;45.196;5.696;2023-09-07T14:16:35;99197.00;;;34.61;29.01
25650;BME280;13505;45.196;5.696;2023-09-07T14:21:25;99197.34;;;34.09;28.45
25650;BME280;13505;45.196;5.696;2023-09-07T14:26:15;99202.63;;;34.04;28.83
25650;BME280;13505;45.196;5.696;2023-09-07T14:31:06;99194.97;;;34.13;28.51
25650;BME280;13505;45.196;5.696;2023-09-07T14:35:57;99184.75;;;34.27;28.63
25650;BME280;13505;45.196;5.696;2023-09-07T14:40:47;99190.34;;;34.13;29.22
25650;BME280;13505;45.196;5.696;2023-09-07T14:45:41;99188.91;;;34.10;28.22
25650;BME280;13505;45.196;5.696;2023-09-07T14:50:31;99183.97;;;33.94;29.50
25650;BME280;13505;45.196;5.696;2023-09-07T14:55:22;99175.66;;;34.07;29.01
25650;BME280;13505;45.196;5.696;2023-09-07T15:00:12;99173.69;;;33.89;27.82
25650;BME280;13505;45.196;5.696;2023-09-07T15:05:03;99163.88;;;33.81;29.27
25650;BME280;13505;45.196;5.696;2023-09-07T15:09:53;99168.50;;;33.55;29.03
25650;BME280;13505;45.196;5.696;2023-09-07T15:14:43;99164.25;;;33.27;29.25
25650;BME280;13505;45.196;5.696;2023-09-07T15:19:34;99158.88;;;33.53;29.59
25650;BME280;13505;45.196;5.696;2023-09-07T15:24:25;99164.38;;;33.46;30.22
25650;BME280;13505;45.196;5.696;2023-09-07T15:29:15;99167.41;;;33.24;31.06
25650;BME280;13505;45.196;5.696;2023-09-07T15:34:06;99157.84;;;33.08;31.00
25650;BME280;13505;45.196;5.696;2023-09-07T15:38:56;99153.63;;;33.12;30.56
25650;BME280;13505;45.196;5.696;2023-09-07T15:43:46;99152.91;;;32.92;31.70
25650;BME280;13505;45.196;5.696;2023-09-07T15:48:37;99145.75;;;32.91;30.92
25650;BME280;13505;45.196;5.696;2023-09-07T15:53:33;99146.22;;;32.74;31.63
25650;BME280;13505;45.196;5.696;2023-09-07T15:58:23;99147.97;;;32.62;31.74
25650;BME280;13505;45.196;5.696;2023-09-07T16:03:15;99135.31;;;32.74;31.55
25650;BME280;13505;45.196;5.696;2023-09-07T16:08:05;99147.78;;;32.56;31.99
25650;BME280;13505;45.196;5.696;2023-09-07T16:12:56;99139.84;;;32.48;31.84
25650;BME280;13505;45.196;5.696;2023-09-07T16:17:46;99148.25;;;32.40;32.08
25650;BME280;13505;45.196;5.696;2023-09-07T16:22:36;99139.44;;;32.17;32.65
25650;BME280;13505;45.196;5.696;2023-09-07T16:27:27;99140.09;;;32.13;32.71
25650;BME280;13505;45.196;5.696;2023-09-07T16:32:17;99143.91;;;31.92;33.13
25650;BME280;13505;45.196;5.696;2023-09-07T16:37:08;99146.41;;;31.66;33.53
25650;BME280;13505;45.196;5.696;2023-09-07T16:41:58;99146.41;;;31.59;33.64
25650;BME280;13505;45.196;5.696;2023-09-07T16:46:49;99136.34;;;31.33;34.50
25650;BME280;13505;45.196;5.696;2023-09-07T16:51:39;99134.13;;;31.01;35.19
25650;BME280;13505;45.196;5.696;2023-09-07T16:56:30;99135.56;;;30.84;35.41
25650;BME280;13505;45.196;5.696;2023-09-07T17:01:21;99131.75;;;30.71;35.81
25650;BME280;13505;45.196;5.696;2023-09-07T17:06:11;99136.03;;;30.52;35.64
25650;BME280;13505;45.196;5.696;2023-09-07T17:11:02;99138.88;;;30.37;35.78
25650;BME280;13505;45.196;5.696;2023-09-07T17:15:53;99146.34;;;30.21;36.39
25650;BME280;13505;45.196;5.696;2023-09-07T17:20:43;99143.53;;;30.08;37.04
25650;BME280;13505;45.196;5.696;2023-09-07T17:25:34;99142.97;;;29.91;37.07
25650;BME280;13505;45.196;5.696;2023-09-07T17:30:24;99153.72;;;29.77;37.37
25650;BME280;13505;45.196;5.696;2023-09-07T17:35:14;99145.72;;;29.69;37.47
25650;BME280;13505;45.196;5.696;2023-09-07T17:40:05;99151.66;;;29.58;37.95
25650;BME280;13505;45.196;5.696;2023-09-07T17:44:56;99159.88;;;29.43;37.87
25650;BME280;13505;45.196;5.696;2023-09-07T17:49:46;99163.94;;;29.32;38.26
25650;BME280;13505;45.196;5.696;2023-09-07T17:54:38;99173.06;;;29.24;38.30
25650;BME280;13505;45.196;5.696;2023-09-07T17:59:28;99174.59;;;29.11;38.79
25650;BME280;13505;45.196;5.696;2023-09-07T18:04:19;99174.72;;;29.03;38.59
25650;BME280;13505;45.196;5.696;2023-09-07T18:09:09;99178.09;;;28.90;39.49
25650;BME280;13505;45.196;5.696;2023-09-07T18:13:59;99176.88;;;28.78;39.92
25650;BME280;13505;45.196;5.696;2023-09-07T18:18:50;99177.84;;;28.70;40.07
25650;BME280;13505;45.196;5.696;2023-09-07T18:23:40;99186.47;;;28.59;40.57
25650;BME280;13505;45.196;5.696;2023-09-07T18:28:31;99197.97;;;28.46;40.78
25650;BME280;13505;45.196;5.696;2023-09-07T18:33:22;99200.28;;;28.34;40.89
25650;BME280;13505;45.196;5.696;2023-09-07T18:38:12;99200.84;;;28.29;40.03
25650;BME280;13505;45.196;5.696;2023-09-07T18:43:02;99198.53;;;28.18;41.08
25650;BME280;13505;45.196;5.696;2023-09-07T18:47:53;99205.81;;;28.02;41.66
25650;BME280;13505;45.196;5.696;2023-09-07T18:52:43;99216.91;;;27.92;41.88
25650;BME280;13505;45.196;5.696;2023-09-07T18:57:33;99213.97;;;27.79;42.33
25650;BME280;13505;45.196;5.696;2023-09-07T19:02:26;99212.06;;;27.64;42.98
25650;BME280;13505;45.196;5.696;2023-09-07T19:07:16;99220.75;;;27.51;43.22
25650;BME280;13505;45.196;5.696;2023-09-07T19:12:10;99228.69;;;27.29;43.98
25650;BME280;13505;45.196;5.696;2023-09-07T19:17:00;99237.72;;;27.13;44.95
25650;BME280;13505;45.196;5.696;2023-09-07T19:21:51;99236.59;;;26.99;44.92
25650;BME280;13505;45.196;5.696;2023-09-07T19:26:41;99237.81;;;26.97;45.11
25650;BME280;13505;45.196;5.696;2023-09-07T19:31:32;99236.22;;;26.63;46.57
25650;BME280;13505;45.196;5.696;2023-09-07T19:36:23;99242.25;;;26.73;46.20
25650;BME280;13505;45.196;5.696;2023-09-07T19:41:13;99241.25;;;26.66;46.42
25650;BME280;13505;45.196;5.696;2023-09-07T19:46:04;99253.81;;;26.50;45.83
25650;BME280;13505;45.196;5.696;2023-09-07T19:50:54;99257.03;;;26.45;46.45
25650;BME280;13505;45.196;5.696;2023-09-07T19:55:45;99253.69;;;26.35;46.77
25650;BME280;13505;45.196;5.696;2023-09-07T20:00:36;99269.75;;;26.28;47.43
25650;BME280;13505;45.196;5.696;2023-09-07T20:05:26;99266.69;;;26.06;48.44
25650;BME280;13505;45.196;5.696;2023-09-07T20:10:16;99271.56;;;26.03;48.01
25650;BME280;13505;45.196;5.696;2023-09-07T20:15:09;99281.53;;;26.11;48.38
25650;BME280;13505;45.196;5.696;2023-09-07T20:19:59;99279.16;;;25.91;49.38
25650;BME280;13505;45.196;5.696;2023-09-07T20:24:50;99275.44;;;25.75;49.67
25650;BME280;13505;45.196;5.696;2023-09-07T20:29:40;99277.13;;;25.68;49.57
25650;BME280;13505;45.196;5.696;2023-09-07T20:34:30;99280.81;;;25.67;49.59
25650;BME280;13505;45.196;5.696;2023-09-07T20:39:21;99279.31;;;25.56;50.77
25650;BME280;13505;45.196;5.696;2023-09-07T20:44:11;99282.44;;;25.43;51.05
25650;BME280;13505;45.196;5.696;2023-09-07T20:49:01;99284.28;;;25.34;51.72
25650;BME280;13505;45.196;5.696;2023-09-07T20:53:51;99288.63;;;25.27;52.90
25650;BME280;13505;45.196;5.696;2023-09-07T20:58:42;99288.78;;;25.26;52.18
25650;BME280;13505;45.196;5.696;2023-09-07T21:03:32;99288.63;;;25.27;52.64
25650;BME280;13505;45.196;5.696;2023-09-07T21:08:22;99285.91;;;25.19;53.24
25650;BME280;13505;45.196;5.696;2023-09-07T21:13:13;99279.41;;;24.95;55.10
25650;BME280;13505;45.196;5.696;2023-09-07T21:18:04;99290.91;;;25.05;54.02
25650;BME280;13505;45.196;5.696;2023-09-07T21:22:54;99288.50;;;24.94;54.65
25650;BME280;13505;45.196;5.696;2023-09-07T21:27:44;99293.00;;;24.85;55.39
25650;BME280;13505;45.196;5.696;2023-09-07T21:32:35;99298.59;;;24.65;55.87
25650;BME280;13505;45.196;5.696;2023-09-07T21:37:25;99301.91;;;24.59;56.66
25650;BME280;13505;45.196;5.696;2023-09-07T21:42:15;99306.03;;;24.45;57.30
25650;BME280;13505;45.196;5.696;2023-09-07T21:47:06;99309.66;;;24.36;57.48
25650;BME280;13505;45.196;5.696;2023-09-07T21:51:58;99307.06;;;24.26;58.52
25650;BME280;13505;45.196;5.696;2023-09-07T21:56:49;99310.84;;;24.15;58.47
